Forside
METAR-TAF:

METAR-TAF

Lufthavne :

Bornholms Lufthavn

Rønne, Danmark

Breddekreds: 55-04N, længdekreds: 014-45E, højde: 16 m

Aktuelle vejr

Denne rapport blev lavet for 22 minutter siden, kl. 21:50 UTC
Vind 16 kt fra nordøst
Temperatur 3°C
Fugtighed 87%
Tryk 1006 hPa
Sigt 10 km eller mere
let regn,

METAR: EKRN 192150Z AUTO 05016KT 9999 -RA BKN015/// OVC087/// 03/01 Q1006

Tid: 00:12 (22:12 UTC)

Vejrudsigter

Denne rapport blev lavet for 2 timer og 7 minutter siden, kl. 20:05 UTC
Foreløbig gælder fra 19 på 21 UTC til 20 på 06 UTC
Vind 12 kt fra nordøst
Sigt 10 km eller mere
Brudte skyer i en højde af 1500 ft
Midlertidig
fra 19 på 21 UTC til 19 på 23 UTC
Sigt: 7000 m
Brudte skyer i en højde af 1200 ft
let regn,

TAF: EKRN 192005Z 1921/2006 05012KT 9999 BKN015 TEMPO 1921/1923 7000 -RA BKN012

Vejrobservationer og prognoser fra mere end 4000 lufthavne (METAR og TAF).

De gule og røde prikker repræsenterer de meteorologiske stationer.

Flyt musen over at se navnet på stationen.

Så klik over at se vejr observationer og prognoser.

At skifte det kort: Klik på de grønne knapper med et sort kors for at zoome ind; på den grønne knap med en bindestreg for at zoome ud; eller på de grønne pile for tilstødende kort.


METAR-TAF: